createdAt,value
2018-03-27T00:03:38.618Z,4.00
2018-03-27T00:08:39.679Z,3.90
2018-03-27T00:13:40.871Z,3.90
2018-03-27T00:18:42.024Z,3.70
2018-03-27T00:23:43.060Z,3.60
2018-03-27T00:28:56.356Z,3.60
2018-03-27T00:34:09.835Z,3.60
2018-03-27T00:39:23.377Z,3.70
2018-03-27T00:44:24.472Z,3.50
2018-03-27T00:49:25.636Z,3.50
2018-03-27T00:54:26.667Z,3.60
2018-03-27T00:59:27.838Z,3.50
2018-03-27T01:04:29.602Z,3.40
2018-03-27T01:09:30.653Z,3.30
2018-03-27T01:14:31.729Z,3.40
2018-03-27T01:19:32.802Z,3.50
2018-03-27T01:24:33.901Z,3.50
2018-03-27T01:29:34.889Z,3.60
2018-03-27T01:34:35.900Z,3.50
2018-03-27T01:39:36.923Z,3.50
2018-03-27T01:44:37.944Z,3.50
2018-03-27T01:49:38.950Z,3.60
2018-03-27T01:54:40.719Z,3.70
2018-03-27T01:59:42.471Z,3.70
2018-03-27T02:04:43.505Z,3.60
2018-03-27T02:09:44.550Z,3.60
2018-03-27T02:14:51.608Z,3.60
2018-03-27T02:19:58.647Z,3.60
2018-03-27T02:24:59.769Z,3.80
2018-03-27T02:30:01.652Z,3.80
2018-03-27T02:35:03.412Z,3.80
2018-03-27T02:40:04.520Z,3.80
2018-03-27T02:45:05.774Z,3.70
2018-03-27T02:50:06.852Z,3.70
2018-03-27T02:55:08.147Z,3.70
2018-03-27T03:00:09.217Z,3.70
2018-03-27T03:05:10.416Z,3.70
2018-03-27T03:10:11.535Z,3.70
2018-03-27T03:15:12.695Z,3.70
2018-03-27T03:20:13.734Z,3.80
2018-03-27T03:25:14.815Z,3.70
2018-03-27T03:30:15.920Z,3.70
2018-03-27T03:35:17.051Z,3.80
2018-03-27T03:40:18.817Z,3.80
2018-03-27T03:45:20.791Z,3.70
2018-03-27T03:50:21.849Z,3.70
2018-03-27T03:55:23.048Z,3.60
2018-03-27T04:00:24.140Z,3.60
2018-03-27T04:05:25.107Z,3.50
2018-03-27T04:10:26.094Z,3.40
2018-03-27T04:15:27.847Z,3.30
2018-03-27T04:20:29.591Z,3.20
2018-03-27T04:25:30.621Z,3.20
2018-03-27T04:30:32.345Z,3.00
2018-03-27T04:35:33.355Z,2.90
2018-03-27T04:40:35.094Z,2.90
2018-03-27T04:45:36.075Z,2.90
2018-03-27T04:50:37.812Z,2.80
2018-03-27T04:55:38.808Z,2.80
2018-03-27T05:00:40.546Z,2.80
2018-03-27T05:05:41.551Z,2.80
2018-03-27T05:10:43.357Z,2.80
2018-03-27T05:15:44.363Z,2.70
2018-03-27T05:20:45.371Z,2.80
2018-03-27T05:25:46.387Z,2.70
2018-03-27T05:30:47.427Z,2.80
2018-03-27T05:35:48.482Z,2.80
2018-03-27T05:40:49.491Z,2.90
2018-03-27T05:45:50.481Z,2.80
2018-03-27T05:50:51.495Z,2.80
2018-03-27T05:55:53.304Z,3.00
2018-03-27T06:00:54.308Z,3.00
2018-03-27T06:05:55.316Z,3.20
2018-03-27T06:10:56.321Z,3.20
2018-03-27T06:15:58.109Z,3.30
2018-03-27T06:20:59.863Z,3.60
2018-03-27T06:26:00.890Z,3.60
2018-03-27T06:31:01.892Z,3.90
2018-03-27T06:36:03.639Z,4.50
2018-03-27T06:41:04.622Z,4.40
2018-03-27T06:46:05.635Z,4.90
2018-03-27T06:51:06.645Z,5.20
2018-03-27T06:56:08.403Z,5.80
2018-03-27T07:01:09.403Z,5.70
2018-03-27T07:06:10.420Z,6.40
2018-03-27T07:11:11.436Z,7.00
2018-03-27T07:16:12.833Z,6.40
2018-03-27T07:21:15.036Z,5.40
2018-03-27T07:26:16.972Z,5.40
2018-03-27T07:31:18.204Z,5.30
2018-03-27T07:36:19.195Z,5.40
2018-03-27T07:41:20.175Z,5.80
2018-03-27T07:46:21.235Z,7.50
2018-03-27T07:51:22.333Z,7.90
2018-03-27T07:56:24.060Z,9.40
2018-03-27T08:01:25.059Z,9.30
2018-03-27T08:06:26.804Z,10.50
2018-03-27T08:11:27.791Z,10.50
2018-03-27T08:16:29.532Z,11.00
2018-03-27T08:21:30.532Z,10.90
2018-03-27T08:26:31.515Z,10.70
2018-03-27T08:31:32.500Z,10.80
2018-03-27T08:36:33.496Z,11.10
2018-03-27T08:41:34.495Z,11.90
2018-03-27T08:46:35.492Z,12.30
2018-03-27T08:51:36.597Z,11.90
2018-03-27T08:56:37.599Z,11.90
2018-03-27T09:01:38.623Z,11.20
2018-03-27T09:06:39.658Z,11.00
2018-03-27T09:11:40.657Z,10.60
2018-03-27T09:16:41.675Z,10.30
2018-03-27T09:21:42.675Z,10.00
2018-03-27T09:26:43.693Z,10.60
2018-03-27T09:31:44.789Z,10.20
2018-03-27T09:36:45.811Z,10.00
2018-03-27T09:41:46.836Z,10.30
2018-03-27T09:46:47.819Z,9.90
2018-03-27T09:51:48.845Z,10.10
2018-03-27T09:56:49.855Z,10.00
2018-03-27T10:01:50.867Z,10.30
2018-03-27T10:06:54.451Z,10.20
2018-03-27T10:11:56.087Z,10.20
2018-03-27T10:16:57.140Z,10.10
2018-03-27T10:21:58.143Z,10.40
2018-03-27T10:26:59.160Z,10.80
2018-03-27T10:32:00.248Z,10.70
2018-03-27T10:37:01.262Z,10.60
2018-03-27T10:42:03.041Z,11.00
2018-03-27T10:47:04.805Z,11.00
2018-03-27T10:52:07.991Z,10.70
2018-03-27T10:57:09.029Z,10.60
2018-03-27T11:02:10.092Z,10.50
2018-03-27T11:07:11.197Z,10.40
2018-03-27T11:12:12.232Z,10.20
2018-03-27T11:17:13.267Z,10.20
2018-03-27T11:22:14.298Z,10.10
2018-03-27T11:27:21.776Z,10.10
2018-03-27T11:32:23.523Z,10.00
2018-03-27T11:37:24.519Z,10.00
2018-03-27T11:42:26.453Z,9.90
2018-03-27T11:47:27.534Z,9.90
2018-03-27T11:52:29.276Z,10.00
2018-03-27T11:57:30.316Z,9.90
2018-03-27T12:02:31.384Z,10.10
2018-03-27T12:07:32.430Z,10.20
2018-03-27T12:12:33.456Z,9.90
2018-03-27T12:17:34.710Z,10.00
2018-03-27T12:22:35.743Z,10.00
2018-03-27T12:27:37.131Z,9.80
2018-03-27T12:32:38.881Z,10.00
2018-03-27T12:37:39.875Z,10.00
2018-03-27T12:42:42.689Z,10.20
2018-03-27T12:47:43.990Z,10.10
2018-03-27T12:52:46.659Z,10.80
2018-03-27T12:57:47.731Z,10.40
2018-03-27T13:02:48.866Z,10.90
2018-03-27T13:07:50.818Z,11.30
2018-03-27T13:12:51.942Z,11.20
2018-03-27T13:17:52.938Z,11.00
2018-03-27T13:22:53.931Z,10.90
2018-03-27T13:27:54.964Z,10.50
2018-03-27T13:32:56.021Z,11.20
2018-03-27T13:37:57.053Z,11.50
2018-03-27T13:42:58.287Z,11.60
2018-03-27T13:48:06.124Z,11.70
2018-03-27T13:53:13.445Z,11.70
2018-03-27T13:58:20.527Z,11.70
2018-03-27T14:03:29.551Z,11.80
2018-03-27T14:08:36.771Z,11.70
2018-03-27T14:13:43.951Z,11.60
2018-03-27T14:18:51.124Z,11.70
2018-03-27T14:23:59.083Z,11.60
2018-03-27T14:29:06.360Z,11.60
2018-03-27T14:34:13.559Z,11.50
2018-03-27T14:39:21.528Z,11.70
2018-03-27T14:44:29.447Z,11.60
2018-03-27T14:49:36.541Z,11.60
2018-03-27T14:54:43.783Z,11.60
2018-03-27T14:59:50.965Z,11.80
2018-03-27T15:04:58.230Z,11.70
2018-03-27T15:10:05.433Z,11.60
2018-03-27T15:15:12.747Z,11.70
2018-03-27T15:20:19.925Z,11.80
2018-03-27T15:25:27.800Z,12.00
2018-03-27T15:30:34.975Z,11.90
2018-03-27T15:35:42.066Z,11.50
2018-03-27T15:40:43.188Z,11.30
2018-03-27T15:45:44.953Z,11.00
2018-03-27T15:50:46.019Z,10.90
2018-03-27T15:55:47.064Z,10.90
2018-03-27T16:00:48.231Z,10.60
2018-03-27T16:05:49.405Z,10.20
2018-03-27T16:10:50.791Z,9.90
2018-03-27T16:15:52.013Z,9.90
2018-03-27T16:20:53.067Z,9.80
2018-03-27T16:25:55.119Z,9.80
2018-03-27T16:30:56.136Z,9.70
2018-03-27T16:35:57.262Z,9.90
2018-03-27T16:40:58.403Z,9.70
2018-03-27T16:45:59.400Z,9.50
2018-03-27T16:51:01.201Z,9.40
2018-03-27T16:56:03.250Z,9.20
2018-03-27T17:01:04.427Z,9.10
2018-03-27T17:06:05.460Z,9.20
2018-03-27T17:11:06.487Z,9.00
2018-03-27T17:16:07.712Z,8.90
2018-03-27T17:21:08.825Z,8.90
2018-03-27T17:26:10.129Z,9.00
2018-03-27T17:31:11.228Z,9.20
2018-03-27T17:36:12.227Z,9.20
2018-03-27T17:41:13.444Z,8.90
2018-03-27T17:46:14.553Z,8.90
2018-03-27T17:51:15.586Z,8.80
2018-03-27T17:56:16.592Z,8.50
2018-03-27T18:01:19.016Z,8.40
2018-03-27T18:06:20.121Z,8.40
2018-03-27T18:11:21.173Z,8.40
2018-03-27T18:16:22.189Z,8.40
2018-03-27T18:21:23.212Z,8.30
2018-03-27T18:26:24.203Z,8.40
2018-03-27T18:31:25.972Z,8.20
2018-03-27T18:36:30.303Z,8.10
2018-03-27T18:41:32.406Z,8.10
2018-03-27T18:46:33.409Z,8.00
2018-03-27T18:51:38.939Z,8.00
2018-03-27T18:56:40.100Z,8.00
2018-03-27T19:01:41.116Z,7.80
2018-03-27T19:06:42.136Z,7.90
2018-03-27T19:11:43.148Z,7.80
2018-03-27T19:16:44.211Z,7.70
2018-03-27T19:21:45.347Z,7.60
2018-03-27T19:26:47.104Z,7.50
2018-03-27T19:31:48.127Z,7.40
2018-03-27T19:36:49.172Z,7.30
2018-03-27T19:41:50.251Z,7.20
2018-03-27T19:46:51.323Z,7.20
2018-03-27T19:51:52.340Z,7.10
2018-03-27T19:56:53.399Z,7.00
2018-03-27T20:01:54.748Z,7.00
2018-03-27T20:06:55.834Z,7.00
2018-03-27T20:11:56.907Z,6.80
2018-03-27T20:16:58.117Z,6.80
2018-03-27T20:21:59.870Z,6.70
2018-03-27T20:27:00.867Z,6.60
2018-03-27T20:32:02.614Z,6.70
2018-03-27T20:37:05.214Z,6.60
2018-03-27T20:42:08.079Z,6.60
2018-03-27T20:47:09.136Z,6.50
2018-03-27T20:52:10.179Z,6.50
2018-03-27T20:57:11.404Z,6.50
2018-03-27T21:02:12.565Z,6.40
2018-03-27T21:07:14.348Z,6.40
2018-03-27T21:12:15.424Z,6.40
2018-03-27T21:17:17.195Z,6.40
2018-03-27T21:22:18.235Z,6.40
2018-03-27T21:27:20.088Z,6.30
2018-03-27T21:32:21.088Z,6.30
2018-03-27T21:37:22.844Z,6.40
2018-03-27T21:42:23.874Z,6.30
2018-03-27T21:47:24.880Z,6.50
2018-03-27T21:52:26.603Z,6.50
2018-03-27T21:57:27.611Z,6.50
2018-03-27T22:02:28.656Z,6.60
2018-03-27T22:07:29.659Z,6.60
2018-03-27T22:12:30.676Z,6.60
2018-03-27T22:17:31.664Z,6.60
2018-03-27T22:22:32.636Z,6.60
2018-03-27T22:27:33.628Z,6.60
2018-03-27T22:32:34.644Z,6.70
2018-03-27T22:37:35.688Z,6.70
2018-03-27T22:42:36.707Z,6.70
2018-03-27T22:47:37.724Z,6.70
2018-03-27T22:52:38.719Z,6.70
2018-03-27T22:57:39.779Z,6.60
2018-03-27T23:02:41.551Z,6.50
2018-03-27T23:07:42.575Z,6.40
2018-03-27T23:12:43.567Z,6.50
2018-03-27T23:17:44.627Z,6.50
2018-03-27T23:22:45.722Z,6.50
2018-03-27T23:27:46.800Z,6.50
2018-03-27T23:32:47.835Z,6.50
2018-03-27T23:37:49.571Z,6.40
2018-03-27T23:42:50.596Z,6.40
2018-03-27T23:47:51.624Z,6.40
2018-03-27T23:52:52.723Z,6.40
2018-03-27T23:57:53.783Z,6.40
